createdAt,value
2018-12-04T00:00:56.776Z,98758.67
2018-12-04T00:03:24.301Z,98762.91
2018-12-04T00:05:51.841Z,98758.05
2018-12-04T00:08:19.343Z,98758.46
2018-12-04T00:10:46.874Z,98764.50
2018-12-04T00:13:25.539Z,98761.00
2018-12-04T00:15:53.075Z,98773.73
2018-12-04T00:18:20.577Z,98769.70
2018-12-04T00:20:48.109Z,98768.48
2018-12-04T00:23:15.605Z,98760.72
2018-12-04T00:25:43.520Z,98772.24
2018-12-04T00:28:11.030Z,98779.76
2018-12-04T00:30:38.539Z,98770.79
2018-12-04T00:33:06.079Z,98771.17
2018-12-04T00:35:33.572Z,98790.59
2018-12-04T00:38:01.105Z,98780.69
2018-12-04T00:40:28.611Z,98791.56
2018-12-04T00:42:56.426Z,98784.42
2018-12-04T00:45:23.933Z,98792.52
2018-12-04T00:47:51.468Z,98796.92
2018-12-04T00:50:18.956Z,98811.59
2018-12-04T00:52:46.487Z,98809.07
2018-12-04T00:55:13.987Z,98814.70
2018-12-04T00:57:41.533Z,98806.45
2018-12-04T01:00:09.849Z,98816.39
2018-12-04T01:02:37.357Z,98820.77
2018-12-04T01:05:05.259Z,98820.19
2018-12-04T01:07:32.765Z,98824.61
2018-12-04T01:10:00.494Z,98825.91
2018-12-04T01:12:28.895Z,98827.53
2018-12-04T01:14:56.923Z,98832.67
2018-12-04T01:17:24.590Z,98831.06
2018-12-04T01:19:52.124Z,98828.39
2018-12-04T01:22:19.634Z,98838.30
2018-12-04T01:24:47.170Z,98852.92
2018-12-04T01:27:14.674Z,98854.03
2018-12-04T01:29:42.248Z,98852.63
2018-12-04T01:32:09.743Z,98861.52
2018-12-04T01:34:37.252Z,98873.60
2018-12-04T01:37:04.796Z,98862.83
2018-12-04T01:39:33.492Z,98873.70
2018-12-04T01:42:01.019Z,98872.87
2018-12-04T01:44:28.520Z,98864.63
2018-12-04T01:46:56.040Z,98882.50
2018-12-04T01:49:23.543Z,98884.01
2018-12-04T01:51:51.071Z,98887.61
2018-12-04T01:54:18.563Z,98885.41
2018-12-04T01:56:46.070Z,98888.70
2018-12-04T01:59:13.595Z,98890.31
2018-12-04T02:01:41.100Z,98903.07
2018-12-04T02:04:08.635Z,98906.17
2018-12-04T02:06:36.123Z,98918.83
2018-12-04T02:09:05.834Z,98921.45
2018-12-04T02:11:33.330Z,98931.36
2018-12-04T02:14:00.945Z,98934.55
2018-12-04T02:16:28.454Z,98940.34
2018-12-04T02:18:56.393Z,98955.04
2018-12-04T02:21:23.899Z,98957.09
2018-12-04T02:23:51.403Z,98963.00
2018-12-04T02:26:18.931Z,98961.78
2018-12-04T02:28:46.428Z,98966.56
2018-12-04T02:31:13.948Z,98972.93
2018-12-04T02:33:41.456Z,98968.06
2018-12-04T02:36:08.980Z,98969.21
2018-12-04T02:38:36.483Z,98965.28
2018-12-04T02:41:04.317Z,98979.69
2018-12-04T02:43:32.064Z,98987.17
2018-12-04T02:45:59.555Z,98981.45
2018-12-04T02:48:27.206Z,98992.59
2018-12-04T02:50:54.703Z,99005.59
2018-12-04T02:53:22.235Z,99005.52
2018-12-04T02:55:49.744Z,99014.78
2018-12-04T02:58:17.270Z,99005.52
2018-12-04T03:00:44.775Z,99001.58
2018-12-04T03:03:12.308Z,99002.14
2018-12-04T03:05:39.801Z,99004.03
2018-12-04T03:08:07.356Z,99008.50
2018-12-04T03:10:34.876Z,99012.34
2018-12-04T03:13:02.372Z,99015.33
2018-12-04T03:15:29.896Z,99025.32
2018-12-04T03:17:57.393Z,99035.13
2018-12-04T03:20:24.933Z,99039.51
2018-12-04T03:22:52.434Z,99039.80
2018-12-04T03:25:19.976Z,99041.37
2018-12-04T03:27:47.484Z,99046.61
2018-12-04T03:30:15.038Z,99050.13
2018-12-04T03:32:42.558Z,99065.70
2018-12-04T03:35:10.056Z,99071.23
2018-12-04T03:37:40.995Z,99081.61
2018-12-04T03:40:08.974Z,99077.57
2018-12-04T03:42:36.511Z,99078.87
2018-12-04T03:45:04.889Z,99085.64
2018-12-04T03:47:32.415Z,99088.52
2018-12-04T03:49:59.921Z,99089.47
2018-12-04T03:52:27.486Z,99090.39
2018-12-04T03:54:54.976Z,99098.31
2018-12-04T03:57:22.470Z,99096.92
2018-12-04T03:59:50.015Z,99103.46
2018-12-04T04:02:17.513Z,99111.78
2018-12-04T04:04:45.361Z,99114.84
2018-12-04T04:07:12.868Z,99130.38
2018-12-04T04:09:40.434Z,99130.68
2018-12-04T04:12:07.937Z,99131.13
2018-12-04T04:14:35.432Z,99132.73
2018-12-04T04:17:02.957Z,99129.38
2018-12-04T04:19:30.451Z,99142.15
2018-12-04T04:21:58.001Z,99148.61
2018-12-04T04:24:25.498Z,99150.41
2018-12-04T04:26:53.038Z,99161.19
2018-12-04T04:29:20.535Z,99164.89
2018-12-04T04:31:48.066Z,99167.84
2018-12-04T04:34:15.580Z,99170.57
2018-12-04T04:36:43.136Z,99174.38
2018-12-04T04:39:10.637Z,99189.08
2018-12-04T04:41:38.784Z,99184.48
2018-12-04T04:44:06.339Z,99199.08
2018-12-04T04:46:33.839Z,99198.58
2018-12-04T04:49:01.363Z,99202.50
2018-12-04T04:51:28.957Z,99212.14
2018-12-04T04:53:56.497Z,99216.59
2018-12-04T04:56:24.117Z,99212.47
2018-12-04T04:58:51.651Z,99218.38
2018-12-04T05:01:19.288Z,99219.01
2018-12-04T05:03:50.856Z,99229.95
2018-12-04T05:06:18.711Z,99229.23
2018-12-04T05:08:46.274Z,99238.72
2018-12-04T05:11:13.772Z,99242.56
2018-12-04T05:13:41.286Z,99245.19
2018-12-04T05:16:08.814Z,99242.00
2018-12-04T05:18:36.308Z,99241.25
2018-12-04T05:21:03.868Z,99237.15
2018-12-04T05:23:31.442Z,99234.38
2018-12-04T05:25:58.973Z,99234.29
2018-12-04T05:28:26.488Z,99241.89
2018-12-04T05:30:54.020Z,99248.04
2018-12-04T05:33:21.535Z,99261.68
2018-12-04T05:35:49.080Z,99258.23
2018-12-04T05:38:16.577Z,99263.44
2018-12-04T05:40:44.112Z,99262.13
2018-12-04T05:43:11.632Z,99273.30
2018-12-04T05:45:39.178Z,99276.60
2018-12-04T05:48:06.671Z,99273.14
2018-12-04T05:50:34.209Z,99281.47
2018-12-04T05:53:13.599Z,99288.48
2018-12-04T05:55:41.134Z,99290.11
2018-12-04T05:58:08.628Z,99309.10
2018-12-04T06:00:36.143Z,99306.84
2018-12-04T06:03:03.693Z,99325.80
2018-12-04T06:05:31.580Z,99327.65
2018-12-04T06:07:59.111Z,99329.35
2018-12-04T06:10:26.603Z,99337.20
2018-12-04T06:12:54.138Z,99339.97
2018-12-04T06:15:21.636Z,99349.28
2018-12-04T06:17:49.184Z,99351.69
2018-12-04T06:20:16.680Z,99362.68
2018-12-04T06:22:44.205Z,99363.80
2018-12-04T06:25:11.731Z,99361.66
2018-12-04T06:27:39.226Z,99366.98
2018-12-04T06:30:07.479Z,99366.74
2018-12-04T06:32:34.980Z,99357.20
2018-12-04T06:35:02.519Z,99356.05
2018-12-04T06:37:30.031Z,99354.91
2018-12-04T06:39:57.566Z,99361.89
2018-12-04T06:42:25.066Z,99371.45
2018-12-04T06:44:52.590Z,99378.70
2018-12-04T06:47:20.088Z,99379.75
2018-12-04T06:49:47.616Z,99380.69
2018-12-04T06:52:15.118Z,99394.84
2018-12-04T06:54:42.911Z,99408.45
2018-12-04T06:57:10.416Z,99415.21
2018-12-04T06:59:37.906Z,99416.37
2018-12-04T07:02:05.628Z,99422.98
2018-12-04T07:04:33.128Z,99420.98
2018-12-04T07:07:00.671Z,99418.99
2018-12-04T07:09:28.178Z,99421.97
2018-12-04T07:11:55.706Z,99424.00
2018-12-04T07:14:23.390Z,99442.30
2018-12-04T07:16:50.969Z,99410.89
2018-12-04T07:19:18.500Z,99451.92
2018-12-04T07:21:46.005Z,99454.68
2018-12-04T07:24:13.543Z,99460.05
2018-12-04T07:26:41.092Z,99467.20
2018-12-04T07:29:08.624Z,99468.84
2018-12-04T07:31:36.141Z,99485.92
2018-12-04T07:34:03.692Z,99492.06
2018-12-04T07:36:36.470Z,99498.37
2018-12-04T07:39:06.884Z,99502.38
2018-12-04T07:41:34.383Z,99503.21
2018-12-04T07:44:01.878Z,99511.31
2018-12-04T07:46:29.402Z,99513.38
2018-12-04T07:48:57.261Z,99513.53
2018-12-04T07:51:24.805Z,99518.77
2018-12-04T07:53:52.308Z,99525.01
2018-12-04T07:56:19.856Z,99528.83
2018-12-04T07:58:47.372Z,99528.83
2018-12-04T08:01:14.921Z,99535.44
2018-12-04T08:03:42.453Z,99543.13
2018-12-04T08:06:10.427Z,99548.08
2018-12-04T08:08:37.998Z,99556.53
2018-12-04T08:11:05.917Z,99561.16
2018-12-04T08:13:34.236Z,99574.37
2018-12-04T08:16:01.951Z,99573.22
2018-12-04T08:18:29.484Z,99583.61
2018-12-04T08:20:56.974Z,99587.23
2018-12-04T08:23:24.500Z,99587.86
2018-12-04T08:25:52.000Z,99590.70
2018-12-04T08:28:19.543Z,99592.13
2018-12-04T08:30:47.131Z,99608.17
2018-12-04T08:33:14.680Z,99603.09
2018-12-04T08:35:42.183Z,99605.86
2018-12-04T08:38:10.588Z,99605.71
2018-12-04T08:40:38.420Z,99607.41
2018-12-04T08:43:05.915Z,99612.51
2018-12-04T08:45:33.441Z,99609.75
2018-12-04T08:48:00.950Z,99615.75
2018-12-04T08:50:28.466Z,99619.96
2018-12-04T08:52:55.961Z,99622.35
2018-12-04T08:55:23.681Z,99627.66
2018-12-04T08:57:51.179Z,99636.64
2018-12-04T09:00:18.715Z,99637.36
2018-12-04T09:02:46.220Z,99646.59
2018-12-04T09:05:13.913Z,99644.67
2018-12-04T09:07:41.765Z,99650.30
2018-12-04T09:10:09.265Z,99648.67
2018-12-04T09:12:36.793Z,99657.36
2018-12-04T09:15:05.185Z,99665.14
2018-12-04T09:17:32.720Z,99671.92
2018-12-04T09:20:00.215Z,99674.69
2018-12-04T09:22:27.777Z,99668.83
2018-12-04T09:24:55.416Z,99684.22
2018-12-04T09:27:23.074Z,99697.67
2018-12-04T09:29:50.677Z,99707.59
2018-12-04T09:32:18.304Z,99707.66
2018-12-04T09:34:45.804Z,99716.69
2018-12-04T09:37:13.620Z,99714.48
2018-12-04T09:39:41.111Z,99721.70
2018-12-04T09:42:08.598Z,99739.56
2018-12-04T09:44:36.123Z,99753.74
2018-12-04T09:47:03.607Z,99749.19
2018-12-04T09:49:31.204Z,99746.10
2018-12-04T09:51:58.700Z,99750.50
2018-12-04T09:54:26.235Z,99756.05
2018-12-04T09:56:53.723Z,99753.13
2018-12-04T09:59:21.246Z,99749.57
2018-12-04T10:01:49.405Z,99760.30
2018-12-04T10:04:16.923Z,99756.38
2018-12-04T10:06:44.443Z,99766.77
2018-12-04T10:09:12.015Z,99773.68
2018-12-04T10:11:39.677Z,99783.10
2018-12-04T10:14:10.202Z,99781.72
2018-12-04T10:16:38.655Z,99785.95
2018-12-04T10:19:06.199Z,99782.09
2018-12-04T10:21:33.753Z,99779.95
2018-12-04T10:24:01.239Z,99782.56
2018-12-04T10:26:28.718Z,99779.92
2018-12-04T10:28:56.235Z,99778.80
2018-12-04T10:31:23.739Z,99783.87
2018-12-04T10:33:51.361Z,99788.90
2018-12-04T10:36:18.839Z,99793.09
2018-12-04T10:38:46.365Z,99787.03
2018-12-04T10:41:13.851Z,99791.17
2018-12-04T10:43:41.362Z,99795.65
2018-12-04T10:46:08.843Z,99790.79
2018-12-04T10:48:36.403Z,99794.58
2018-12-04T10:51:03.891Z,99793.97
2018-12-04T10:53:31.378Z,99788.53
2018-12-04T10:55:58.900Z,99796.89
2018-12-04T10:58:26.382Z,99796.38
2018-12-04T11:00:55.836Z,99803.42
2018-12-04T11:03:25.346Z,99800.80
2018-12-04T11:05:52.878Z,99809.56
2018-12-04T11:08:20.368Z,99807.25
2018-12-04T11:10:49.282Z,99814.96
2018-12-04T11:13:16.882Z,99809.36
2018-12-04T11:15:44.367Z,99820.17
2018-12-04T11:18:11.899Z,99814.80
2018-12-04T11:20:39.384Z,99819.52
2018-12-04T11:23:06.910Z,99818.19
2018-12-04T11:25:34.455Z,99812.05
2018-12-04T11:28:03.113Z,99806.67
2018-12-04T11:30:30.719Z,99814.83
2018-12-04T11:32:58.785Z,99825.91
2018-12-04T11:35:26.300Z,99825.48
2018-12-04T11:37:53.827Z,99828.54
2018-12-04T11:40:21.317Z,99819.68
2018-12-04T11:42:48.868Z,99817.20
2018-12-04T11:45:16.350Z,99827.43
2018-12-04T11:47:43.831Z,99824.58
2018-12-04T11:50:11.347Z,99821.29
2018-12-04T11:52:38.828Z,99828.37
2018-12-04T11:55:06.440Z,99834.14
2018-12-04T11:57:33.933Z,99840.98
2018-12-04T12:00:01.627Z,99837.53
2018-12-04T12:02:29.127Z,99842.76
2018-12-04T12:04:56.661Z,99841.99
2018-12-04T12:07:24.144Z,99838.17
2018-12-04T12:09:52.288Z,99830.59
2018-12-04T12:12:19.874Z,99829.11
2018-12-04T12:14:47.402Z,99833.63
2018-12-04T12:17:14.891Z,99842.91
2018-12-04T12:19:42.407Z,99844.88
2018-12-04T12:22:09.968Z,99846.48
2018-12-04T12:24:37.481Z,99851.58
2018-12-04T12:27:05.125Z,99854.25
2018-12-04T12:29:33.031Z,99840.13
2018-12-04T12:32:00.596Z,99857.36
2018-12-04T12:34:28.103Z,99855.39
2018-12-04T12:36:55.619Z,99857.47
2018-12-04T12:39:23.157Z,99865.45
2018-12-04T12:41:50.773Z,99868.77
2018-12-04T12:44:18.330Z,99876.31
2018-12-04T12:46:45.825Z,99874.62
2018-12-04T12:49:13.368Z,99874.95
2018-12-04T12:51:41.559Z,99882.67
2018-12-04T12:54:09.221Z,99877.92
2018-12-04T12:56:36.753Z,99880.67
2018-12-04T12:59:04.388Z,99883.62
2018-12-04T13:01:31.871Z,99887.17
2018-12-04T13:03:59.362Z,99894.20
2018-12-04T13:06:26.914Z,99905.64
2018-12-04T13:08:54.405Z,99911.61
2018-12-04T13:11:21.926Z,99918.86
2018-12-04T13:13:49.439Z,99914.69
2018-12-04T13:16:16.959Z,99922.55
2018-12-04T13:18:44.448Z,99918.34
2018-12-04T13:21:13.176Z,99925.59
2018-12-04T13:23:40.763Z,99926.97
2018-12-04T13:26:08.585Z,99932.14
2018-12-04T13:28:36.087Z,99936.61
2018-12-04T13:31:03.636Z,99939.33
2018-12-04T13:33:31.717Z,99947.75
2018-12-04T13:35:59.332Z,99935.88
2018-12-04T13:38:26.895Z,99944.52
2018-12-04T13:40:54.468Z,99951.28
2018-12-04T13:43:21.987Z,99947.87
2018-12-04T13:45:49.479Z,99948.92
2018-12-04T13:48:16.999Z,99944.71
2018-12-04T13:50:44.488Z,99952.11
2018-12-04T13:53:13.639Z,99954.58
2018-12-04T13:55:42.397Z,99956.52
2018-12-04T13:58:11.318Z,99958.02
2018-12-04T14:00:40.251Z,99960.10
2018-12-04T14:03:07.881Z,99965.00
2018-12-04T14:05:35.753Z,99964.70
2018-12-04T14:08:03.491Z,99964.89
2018-12-04T14:10:31.026Z,99965.27
2018-12-04T14:15:42.935Z,99984.28
2018-12-04T14:18:10.435Z,99983.00
2018-12-04T14:20:40.425Z,99987.85
2018-12-04T14:23:08.153Z,99985.77
2018-12-04T14:25:35.703Z,99990.29
2018-12-04T14:28:03.330Z,99996.50
2018-12-04T14:30:31.327Z,100008.69
2018-12-04T14:32:58.842Z,100010.26
2018-12-04T14:35:26.335Z,100019.09
2018-12-04T14:37:54.141Z,100020.69
2018-12-04T14:40:21.704Z,100015.89
2018-12-04T14:42:51.361Z,100021.59
2018-12-04T14:45:18.886Z,100023.30
2018-12-04T14:47:46.540Z,100023.67
2018-12-04T14:50:14.163Z,100025.10
2018-12-04T14:52:41.711Z,100027.23
2018-12-04T14:55:09.247Z,100031.55
2018-12-04T14:57:37.445Z,100036.34
2018-12-04T15:00:08.753Z,100034.58
2018-12-04T15:02:36.485Z,100033.27
2018-12-04T15:05:04.767Z,100031.90
2018-12-04T15:07:32.374Z,100030.10
2018-12-04T15:09:59.928Z,100037.27
2018-12-04T15:12:27.414Z,100027.91
2018-12-04T15:14:54.928Z,100039.66
2018-12-04T15:17:22.420Z,100040.22
2018-12-04T15:19:49.955Z,100048.62
2018-12-04T15:22:17.547Z,100052.22
2018-12-04T15:24:45.067Z,100062.77
2018-12-04T15:27:12.567Z,100063.09
2018-12-04T15:29:40.116Z,100066.11
2018-12-04T15:32:07.783Z,100072.48
2018-12-04T15:34:35.322Z,100067.09
2018-12-04T15:37:02.888Z,100074.53
2018-12-04T15:39:30.476Z,100073.61
2018-12-04T15:41:58.167Z,100071.84
2018-12-04T15:44:25.703Z,100071.73
2018-12-04T15:46:53.421Z,100084.80
2018-12-04T15:49:20.995Z,100087.13
2018-12-04T15:51:51.064Z,100091.13
2018-12-04T15:54:22.779Z,100091.41
2018-12-04T15:56:51.648Z,100090.77
2018-12-04T15:59:22.843Z,100090.77
2018-12-04T16:01:50.553Z,100105.25
2018-12-04T16:04:22.541Z,100100.81
2018-12-04T16:06:51.029Z,100097.82
2018-12-04T16:09:20.647Z,100099.70
2018-12-04T16:11:52.192Z,100101.36
2018-12-04T16:14:21.725Z,100104.80
2018-12-04T16:16:51.663Z,100106.73
2018-12-04T16:19:21.653Z,100108.47
2018-12-04T16:21:52.908Z,100110.36
2018-12-04T16:24:22.373Z,100115.28
2018-12-04T16:26:50.024Z,100124.70
2018-12-04T16:29:21.066Z,100126.59
2018-12-04T16:31:54.492Z,100134.95
2018-12-04T16:34:24.415Z,100141.06
2018-12-04T16:36:54.642Z,100147.43
2018-12-04T16:39:22.316Z,100145.36
2018-12-04T16:41:52.370Z,100139.13
2018-12-04T16:44:24.245Z,100137.55
2018-12-04T16:46:56.678Z,100138.39
2018-12-04T16:49:26.695Z,100148.05
2018-12-04T16:51:54.288Z,100153.61
2018-12-04T16:54:24.384Z,100158.52
2018-12-04T16:56:53.332Z,100160.69
2018-12-04T16:59:22.511Z,100143.98
2018-12-04T17:01:52.091Z,100131.86
2018-12-04T17:04:20.240Z,100137.45
2018-12-04T17:06:50.182Z,100138.47
2018-12-04T17:09:21.059Z,100131.13
2018-12-04T17:11:50.261Z,100129.57
2018-12-04T17:14:21.667Z,100146.13
2018-12-04T17:16:49.513Z,100162.37
2018-12-04T17:19:20.967Z,100166.66
2018-12-04T17:21:53.466Z,100164.84
2018-12-04T17:24:32.358Z,100164.54
2018-12-04T17:27:01.647Z,100162.70
2018-12-04T17:29:29.179Z,100175.34
2018-12-04T17:31:56.679Z,100173.59
2018-12-04T17:34:24.687Z,100170.70
2018-12-04T17:36:52.192Z,100169.69
2018-12-04T17:39:19.727Z,100183.30
2018-12-04T17:41:47.241Z,100196.52
2018-12-04T17:44:14.772Z,100187.98
2018-12-04T17:46:42.299Z,100187.14
2018-12-04T17:49:09.835Z,100183.27
2018-12-04T17:51:40.474Z,100189.02
2018-12-04T17:54:09.982Z,100193.03
2018-12-04T17:56:38.583Z,100189.14
2018-12-04T17:59:07.738Z,100188.72
2018-12-04T18:01:38.313Z,100195.77
2018-12-04T18:04:08.640Z,100195.80
2018-12-04T18:06:37.370Z,100200.19
2018-12-04T18:09:07.447Z,100199.69
2018-12-04T18:11:35.727Z,100207.45
2018-12-04T18:14:03.602Z,100197.15
2018-12-04T18:16:33.680Z,100202.09
2018-12-04T18:19:04.302Z,100216.85
2018-12-04T18:21:33.437Z,100222.38
2018-12-04T18:24:12.480Z,100243.30
2018-12-04T18:26:40.102Z,100239.70
2018-12-04T18:29:10.718Z,100235.30
2018-12-04T18:31:40.013Z,100243.34
2018-12-04T18:34:08.007Z,100237.45
2018-12-04T18:36:35.511Z,100231.56
2018-12-04T18:39:03.833Z,100229.15
2018-12-04T18:41:34.134Z,100219.38
2018-12-04T18:44:04.629Z,100219.91
2018-12-04T18:46:35.182Z,100225.92
2018-12-04T18:49:04.168Z,100231.58
2018-12-04T18:51:31.667Z,100234.95
2018-12-04T18:54:01.072Z,100232.39
2018-12-04T18:56:31.194Z,100224.53
2018-12-04T18:59:02.705Z,100225.12
2018-12-04T19:01:35.508Z,100226.27
2018-12-04T19:04:06.793Z,100220.83
2018-12-04T19:06:39.726Z,100226.98
2018-12-04T19:09:12.230Z,100234.63
2018-12-04T19:11:43.744Z,100236.58
2018-12-04T19:14:11.497Z,100234.00
2018-12-04T19:16:39.027Z,100238.44
2018-12-04T19:19:06.572Z,100245.47
2018-12-04T19:21:35.548Z,100242.97
2018-12-04T19:24:05.915Z,100249.93
2018-12-04T19:26:36.330Z,100257.92
2018-12-04T19:29:07.063Z,100263.17
2018-12-04T19:31:38.029Z,100263.12
2018-12-04T19:34:08.125Z,100263.14
2018-12-04T19:36:39.766Z,100247.23
2018-12-04T19:39:10.377Z,100237.09
2018-12-04T19:41:43.112Z,100239.12
2018-12-04T19:44:14.170Z,100240.31
2018-12-04T19:46:45.663Z,100249.95
2018-12-04T19:49:17.611Z,100254.77
2018-12-04T19:51:49.735Z,100260.55
2018-12-04T19:54:20.611Z,100255.98
2018-12-04T19:56:52.395Z,100242.38
2018-12-04T19:59:22.678Z,100250.87
2018-12-04T20:01:57.002Z,100249.41
2018-12-04T20:04:26.897Z,100253.72
2018-12-04T20:06:59.326Z,100245.69
2018-12-04T20:09:31.231Z,100248.45
2018-12-04T20:12:08.370Z,100248.67
2018-12-04T20:14:38.263Z,100247.58
2018-12-04T20:17:07.978Z,100257.58
2018-12-04T20:19:37.618Z,100267.51
2018-12-04T20:22:07.889Z,100263.11
2018-12-04T20:24:36.489Z,100265.56
2018-12-04T20:27:07.283Z,100272.99
2018-12-04T20:29:38.369Z,100269.84
2018-12-04T20:34:44.592Z,100273.28
2018-12-04T20:37:13.718Z,100274.16
2018-12-04T20:39:45.296Z,100274.19
2018-12-04T20:42:23.073Z,100276.78
2018-12-04T20:44:49.625Z,100277.22
2018-12-04T20:47:20.809Z,100275.72
2018-12-04T20:49:52.157Z,100282.73
2018-12-04T20:52:23.198Z,100293.22
2018-12-04T20:54:55.648Z,100296.72
2018-12-04T20:57:28.730Z,100295.38
2018-12-04T21:00:00.087Z,100291.69
2018-12-04T21:02:32.339Z,100305.70
2018-12-04T21:05:03.132Z,100303.68
2018-12-04T21:10:14.554Z,100297.14
2018-12-04T21:12:46.448Z,100298.11
2018-12-04T21:15:17.566Z,100296.71
2018-12-04T21:17:49.505Z,100293.15
2018-12-04T21:20:20.521Z,100296.98
2018-12-04T21:22:51.539Z,100293.00
2018-12-04T21:25:23.172Z,100298.28
2018-12-04T21:27:59.234Z,100300.70
2018-12-04T21:30:35.751Z,100303.81
2018-12-04T21:33:11.651Z,100302.97
2018-12-04T21:41:33.410Z,100296.27
2018-12-04T21:44:09.435Z,100299.55
2018-12-04T21:49:51.153Z,100296.91
2018-12-04T21:52:23.645Z,100290.72
2018-12-04T21:54:55.076Z,100283.91
2018-12-04T21:57:26.947Z,100280.88
2018-12-04T21:59:57.964Z,100286.08
2018-12-04T22:02:31.223Z,100287.60
2018-12-04T22:05:04.122Z,100287.72
2018-12-04T22:07:36.873Z,100278.72
2018-12-04T22:10:12.203Z,100280.38
2018-12-04T22:12:43.821Z,100276.54
2018-12-04T22:15:17.055Z,100274.09
2018-12-04T22:17:48.539Z,100278.06
2018-12-04T22:20:19.876Z,100292.83
2018-12-04T22:22:51.905Z,100294.80
2018-12-04T22:25:22.701Z,100299.67
2018-12-04T22:27:52.847Z,100299.14
2018-12-04T22:30:24.266Z,100301.84
2018-12-04T22:32:54.060Z,100303.69
2018-12-04T22:35:24.729Z,100303.77
2018-12-04T22:37:56.281Z,100307.84
2018-12-04T22:40:27.899Z,100316.20
2018-12-04T22:42:57.514Z,100317.71
2018-12-04T22:45:29.443Z,100328.25
2018-12-04T22:48:00.143Z,100328.27
2018-12-04T22:50:30.926Z,100327.71
2018-12-04T22:53:01.626Z,100320.81
2018-12-04T22:55:31.958Z,100316.94
2018-12-04T22:58:00.887Z,100309.48
2018-12-04T23:00:37.750Z,100307.66
2018-12-04T23:03:08.352Z,100304.73
2018-12-04T23:05:37.215Z,100300.16
2018-12-04T23:08:07.797Z,100296.70
2018-12-04T23:10:36.022Z,100303.52
2018-12-04T23:13:04.483Z,100293.70
2018-12-04T23:15:32.106Z,100294.88
2018-12-04T23:18:04.675Z,100289.73
2018-12-04T23:20:32.448Z,100295.30
2018-12-04T23:23:01.266Z,100305.98
2018-12-04T23:25:30.640Z,100304.84
2018-12-04T23:27:59.791Z,100297.45
2018-12-04T23:30:28.680Z,100296.20
2018-12-04T23:32:57.245Z,100293.04
2018-12-04T23:35:26.823Z,100291.62
2018-12-04T23:37:56.107Z,100285.30
2018-12-04T23:40:24.020Z,100284.37
2018-12-04T23:42:51.538Z,100287.80
2018-12-04T23:45:19.088Z,100288.70
2018-12-04T23:47:49.341Z,100294.00
2018-12-04T23:50:17.599Z,100290.52
2018-12-04T23:52:46.269Z,100285.27
2018-12-04T23:55:14.592Z,100280.04
2018-12-04T23:57:43.887Z,100267.11
